Pirajui, Brazil
Current Conditions -  °F | °C
As of 11:00 PM on Thursday 27 Nov 2014 (Local Time) from SBML Reporting Station
Broken Clouds Broken Clouds  
Wind Chill: 79°   Ceiling: 5000
Heat Index: 81°   Visibility: 6mi
Dew Point: 66°   Wind: 12mph
Humidity: 65%   Direction: 150°SSE
Pressure: 29.97"   Gusts: NA
Location:  22°S, 49.46°W
Report Text: SBML 280100Z 15010KT 9999 SCT020 BKN050 26/19 Q1015
Loading
Personal Weather Stations






























Interactive Weather Map New forecast layout! Learn more

10-Day Weather Forecast

Advertisements
Track Severe Weather on mobile